Time;durP1;ratioP1;P1;durP2;ratioP2;P2;SDS_P1;SDS_P2;PMS_P1;PMS_P2;Temp;Humidity;BMP_temperature;BMP_pressure;BME280_temperature;BME280_humidity;BME280_pressure;Samples;Min_cycle;Max_cycle;Signal;HPM_P1;HPM_P2
2021/04/01 00:00:17;;;;;;;13.65;9.77;;;;;;;13.38;45.34;101226.13;691902;28;45331;-56
2021/04/01 00:00:43;;;;;;;13.38;9.65;;;;;;;13.34;45.58;101223.78;690658;28;46941;-57
2021/04/01 00:01:06;;;;;;;11.93;9.73;;;;;;;13.33;45.78;101222.09;689997;28;115025;-57
2021/04/01 00:01:27;;;;;;;15.48;10.00;;;;;;;13.33;45.42;101224.81;691673;28;76862;-57
2021/04/01 00:01:49;;;;;;;13.80;10.30;;;;;;;13.36;45.75;101220.06;693276;28;18995;-56
2021/04/01 00:02:10;;;;;;;14.27;10.20;;;;;;;13.36;45.77;101220.06;691475;28;11131;-57
2021/04/01 00:02:31;;;;;;;14.52;10.25;;;;;;;13.30;45.68;101218.88;692092;28;46010;-56
2021/04/01 00:02:53;;;;;;;13.15;10.15;;;;;;;13.28;45.71;101219.06;693105;28;21534;-58
2021/04/01 00:03:15;;;;;;;14.75;10.50;;;;;;;13.29;45.84;101217.19;692638;28;46432;-56
2021/04/01 00:03:36;;;;;;;12.85;10.00;;;;;;;13.30;45.34;101217.00;693653;28;19840;-56
2021/04/01 00:03:57;;;;;;;12.98;9.57;;;;;;;13.31;45.72;101213.28;694017;28;21553;-56
2021/04/01 00:04:18;;;;;;;14.63;10.18;;;;;;;13.32;45.92;101222.25;692993;28;22423;-54
2021/04/01 00:04:39;;;;;;;14.52;10.10;;;;;;;13.33;45.64;101218.53;693547;28;21549;-58
2021/04/01 00:05:05;;;;;;;13.20;10.48;;;;;;;13.34;45.92;101221.06;692773;28;47219;-56
2021/04/01 00:05:28;;;;;;;14.00;9.95;;;;;;;13.34;45.97;101221.06;689744;28;136442;-58
2021/04/01 00:05:49;;;;;;;14.02;9.88;;;;;;;13.35;45.92;101219.19;691239;28;68353;-54
2021/04/01 00:06:11;;;;;;;14.35;10.38;;;;;;;13.36;45.86;101215.47;693181;28;22419;-58
2021/04/01 00:06:33;;;;;;;16.58;10.27;;;;;;;13.38;45.58;101215.28;692622;28;44391;-56
2021/04/01 00:06:54;;;;;;;14.82;9.85;;;;;;;13.39;45.66;101220.53;693448;28;23414;-56
2021/04/01 00:07:15;;;;;;;12.35;10.10;;;;;;;13.40;45.57;101214.06;692957;28;23525;-56
2021/04/01 00:07:36;;;;;;;12.32;9.93;;;;;;;13.42;45.50;101213.91;693453;28;24330;-56
2021/04/01 00:07:57;;;;;;;13.82;10.25;;;;;;;13.43;46.11;101213.72;692228;28;22414;-56
2021/04/01 00:08:18;;;;;;;13.40;10.30;;;;;;;13.42;45.78;101212.00;692109;28;45342;-56
2021/04/01 00:08:41;;;;;;;14.82;10.15;;;;;;;13.38;46.08;101213.41;693111;28;19171;-57
2021/04/01 00:09:03;;;;;;;14.30;10.45;;;;;;;13.37;46.11;101210.88;691599;28;69380;-56
2021/04/01 00:09:24;;;;;;;15.32;10.93;;;;;;;13.32;46.11;101209.53;690759;28;19920;-57
2021/04/01 00:09:45;;;;;;;17.30;10.73;;;;;;;13.29;46.19;101209.03;691416;28;1795;-54
2021/04/01 00:10:09;;;;;;;15.68;10.38;;;;;;;13.28;46.28;101210.91;692698;28;32800;-58
2021/04/01 00:10:37;;;;;;;13.63;10.20;;;;;;;13.31;46.18;101202.41;692052;28;69505;-56
2021/04/01 00:10:58;;;;;;;13.38;10.38;;;;;;;13.30;46.20;101208.03;689138;28;128959;-57
2021/04/01 00:11:20;;;;;;;15.00;10.80;;;;;;;13.25;46.51;101207.75;693727;28;10515;-54
2021/04/01 00:11:41;;;;;;;15.52;10.70;;;;;;;13.23;46.48;101207.91;693245;28;27221;-57
2021/04/01 00:12:02;;;;;;;15.95;10.52;;;;;;;13.21;46.54;101209.97;694151;28;17096;-57
2021/04/01 00:12:23;;;;;;;14.48;10.93;;;;;;;13.18;46.39;101207.59;693411;28;23913;-57
2021/04/01 00:12:45;;;;;;;15.13;10.82;;;;;;;13.15;46.50;101208.00;693789;28;20976;-57
2021/04/01 00:13:06;;;;;;;14.80;10.60;;;;;;;13.11;46.96;101206.66;692707;28;46802;-57
2021/04/01 00:13:27;;;;;;;14.93;10.23;;;;;;;13.11;46.83;101206.66;693954;28;22531;-56
2021/04/01 00:13:54;;;;;;;14.52;10.55;;;;;;;13.13;46.89;101201.91;692425;28;61882;-57
2021/04/01 00:14:19;;;;;;;14.25;10.57;;;;;;;13.13;46.84;101202.75;691802;28;41856;-57
2021/04/01 00:14:40;;;;;;;15.95;10.70;;;;;;;13.15;46.58;101205.28;690708;28;93130;-56
2021/04/01 00:15:02;;;;;;;13.30;10.48;;;;;;;13.14;46.60;101209.84;693436;28;23451;-56
2021/04/01 00:15:24;;;;;;;13.60;10.40;;;;;;;13.14;46.85;101211.72;692556;28;46377;-56
2021/04/01 00:15:45;;;;;;;12.02;9.88;;;;;;;13.12;46.88;101203.78;691937;28;46411;-56
2021/04/01 00:16:06;;;;;;;12.68;9.93;;;;;;;13.09;47.38;101200.59;694258;28;23482;-56
2021/04/01 00:16:27;;;;;;;14.48;10.27;;;;;;;13.08;46.94;101209.75;694105;28;23530;-56
2021/04/01 00:16:49;;;;;;;13.80;10.00;;;;;;;13.06;47.28;101206.38;693638;28;45318;-56
2021/04/01 00:17:10;;;;;;;12.52;10.07;;;;;;;13.05;47.03;101207.41;694023;28;33515;-56
2021/04/01 00:17:31;;;;;;;14.68;10.52;;;;;;;13.02;47.42;101200.47;693348;28;23018;-56
2021/04/01 00:17:52;;;;;;;15.77;10.30;;;;;;;13.05;47.26;101202.81;693818;28;23447;-57
2021/04/01 00:18:15;;;;;;;15.48;10.32;;;;;;;13.05;47.43;101200.09;694160;28;12406;-56
2021/04/01 00:18:37;;;;;;;14.63;10.50;;;;;;;13.02;47.16;101202.34;692281;28;68694;-55
2021/04/01 00:18:58;;;;;;;15.75;10.80;;;;;;;12.98;47.61;101197.28;692404;28;47220;-57
2021/04/01 00:19:19;;;;;;;16.10;10.80;;;;;;;12.97;47.24;101205.59;692902;28;21666;-54
2021/04/01 00:19:40;;;;;;;16.40;10.80;;;;;;;12.96;47.37;101202.03;693544;28;22202;-55
2021/04/01 00:20:02;;;;;;;14.00;10.13;;;;;;;12.97;47.79;101205.59;693843;28;21096;-55
2021/04/01 00:20:24;;;;;;;16.05;10.77;;;;;;;12.97;47.32;101203.72;693661;28;31172;-55
2021/04/01 00:20:46;;;;;;;15.68;11.13;;;;;;;12.92;47.27;101199.88;694345;28;15472;-55
2021/04/01 00:21:07;;;;;;;12.85;10.57;;;;;;;12.91;47.47;101200.91;692957;28;44522;-57
2021/04/01 00:21:29;;;;;;;14.93;10.23;;;;;;;12.91;47.80;101204.44;693800;28;22409;-55
2021/04/01 00:21:50;;;;;;;13.60;10.32;;;;;;;12.91;47.46;101200.91;693258;28;41884;-55
2021/04/01 00:22:11;;;;;;;14.88;10.25;;;;;;;12.91;47.35;101203.59;694267;28;9590;-57
2021/04/01 00:22:32;;;;;;;15.88;9.63;;;;;;;12.91;47.49;101204.44;693266;28;17823;-57
2021/04/01 00:22:54;;;;;;;16.35;10.05;;;;;;;12.94;47.29;101200.53;694231;28;21717;-56
2021/04/01 00:23:15;;;;;;;18.63;10.52;;;;;;;12.94;47.57;101206.78;693852;28;34644;-57
2021/04/01 00:23:36;;;;;;;17.48;10.38;;;;;;;12.98;47.38;101201.88;694147;28;22482;-55
2021/04/01 00:23:57;;;;;;;14.90;9.70;;;;;;;12.98;47.42;101202.69;694047;28;21525;-57
2021/04/01 00:24:18;;;;;;;14.20;10.30;;;;;;;12.98;47.70;101201.88;693642;28;8767;-56
2021/04/01 00:24:40;;;;;;;13.65;10.30;;;;;;;12.95;47.32;101197.63;694312;28;22491;-57
2021/04/01 00:25:01;;;;;;;14.18;10.20;;;;;;;12.94;47.61;101200.53;694417;28;1174;-56
2021/04/01 00:25:23;;;;;;;14.02;10.45;;;;;;;12.95;47.38;101194.94;693112;28;46836;-54
2021/04/01 00:25:44;;;;;;;16.35;10.93;;;;;;;12.97;47.43;101192.88;694012;28;867;-57
2021/04/01 00:26:07;;;;;;;16.05;10.50;;;;;;;13.01;47.23;101198.78;694422;28;2366;-53
2021/04/01 00:26:28;;;;;;;13.88;9.85;;;;;;;13.05;47.38;101196.56;693733;28;47092;-56
2021/04/01 00:26:49;;;;;;;14.82;9.65;;;;;;;13.05;47.05;101202.81;694122;28;9825;-57
2021/04/01 00:27:10;;;;;;;16.08;10.07;;;;;;;13.04;47.00;101193.00;694275;28;18758;-57
2021/04/01 00:27:32;;;;;;;17.13;10.75;;;;;;;13.05;47.00;101193.84;694035;28;1675;-54
2021/04/01 00:27:54;;;;;;;14.25;10.27;;;;;;;13.05;47.00;101196.56;693266;28;24650;-56
2021/04/01 00:28:15;;;;;;;16.15;10.40;;;;;;;13.04;47.13;101198.44;694544;28;12474;-54
2021/04/01 00:28:36;;;;;;;14.95;10.13;;;;;;;13.04;47.25;101193.00;693507;28;47486;-57
2021/04/01 00:28:58;;;;;;;15.75;10.15;;;;;;;13.06;47.12;101188.22;694356;28;896;-57
2021/04/01 00:29:20;;;;;;;13.68;9.77;;;;;;;13.07;47.21;101194.50;693148;28;23504;-56
2021/04/01 00:29:41;;;;;;;15.98;10.90;;;;;;;13.05;47.26;101188.41;694673;28;938;-54
2021/04/01 00:30:04;;;;;;;16.88;11.07;;;;;;;13.05;46.93;101193.84;694979;28;928;-56
2021/04/01 00:30:25;;;;;;;16.23;10.20;;;;;;;13.07;46.85;101191.78;692841;28;47343;-55
2021/04/01 00:30:47;;;;;;;17.05;10.63;;;;;;;13.05;47.32;101188.41;693619;28;21540;-56
2021/04/01 00:31:08;;;;;;;15.27;10.45;;;;;;;13.02;46.93;101184.19;693307;28;36542;-57
2021/04/01 00:31:29;;;;;;;13.70;9.85;;;;;;;13.05;46.98;101191.13;694087;28;22489;-57
2021/04/01 00:31:51;;;;;;;12.35;9.38;;;;;;;13.07;47.12;101184.50;694164;28;23418;-56
2021/04/01 00:32:12;;;;;;;13.43;9.45;;;;;;;13.10;46.88;101196.84;695181;28;920;-56
2021/04/01 00:32:33;;;;;;;14.05;9.70;;;;;;;13.14;46.83;101187.31;693601;28;19809;-56
2021/04/01 00:32:54;;;;;;;12.93;9.77;;;;;;;13.16;46.91;101183.41;693550;28;41754;-57
2021/04/01 00:33:15;;;;;;;13.70;9.80;;;;;;;13.20;46.79;101188.44;694335;28;22069;-55
2021/04/01 00:33:36;;;;;;;13.63;9.95;;;;;;;13.22;46.43;101179.09;694209;28;22408;-57
2021/04/01 00:33:58;;;;;;;12.00;9.20;;;;;;;13.23;46.60;101183.50;693784;28;23486;-53
2021/04/01 00:34:19;;;;;;;12.25;9.30;;;;;;;13.26;46.45;101185.00;693672;28;16508;-57
2021/04/01 00:34:40;;;;;;;12.95;9.75;;;;;;;13.27;46.35;101189.41;693527;28;22474;-55
2021/04/01 00:35:02;;;;;;;12.07;9.32;;;;;;;13.26;46.37;101191.28;693685;28;23672;-57
2021/04/01 00:35:24;;;;;;;13.00;9.38;;;;;;;13.26;46.08;101185.00;692464;28;46346;-57
2021/04/01 00:35:45;;;;;;;13.70;9.68;;;;;;;13.26;45.92;101180.44;692315;28;52603;-56
2021/04/01 00:36:07;;;;;;;15.05;9.75;;;;;;;13.25;45.88;101189.59;693975;28;16206;-56
2021/04/01 00:36:28;;;;;;;12.05;9.40;;;;;;;13.25;46.07;101180.63;693676;28;22357;-56
2021/04/01 00:36:50;;;;;;;12.90;9.68;;;;;;;13.23;46.04;101186.22;693486;28;25053;-53
2021/04/01 00:37:11;;;;;;;13.23;9.88;;;;;;;13.22;46.08;101180.97;692815;28;46203;-56
2021/04/01 00:37:32;;;;;;;12.65;9.30;;;;;;;13.22;46.10;101184.53;693816;28;22433;-55
2021/04/01 00:37:53;;;;;;;13.75;9.57;;;;;;;13.22;45.89;101179.09;694359;28;1532;-57
2021/04/01 00:38:14;;;;;;;12.85;9.82;;;;;;;13.22;45.98;101181.81;693762;28;21595;-57
2021/04/01 00:38:36;;;;;;;13.13;9.30;;;;;;;13.23;46.20;101179.94;693558;28;44396;-54
2021/04/01 00:38:57;;;;;;;13.90;9.43;;;;;;;13.22;45.96;101181.81;694012;28;23534;-55
2021/04/01 00:39:18;;;;;;;13.80;9.43;;;;;;;13.22;45.90;101184.53;693598;28;23463;-56
2021/04/01 00:39:39;;;;;;;13.30;9.43;;;;;;;13.23;46.16;101186.22;694062;28;23473;-57
2021/04/01 00:40:01;;;;;;;13.40;9.27;;;;;;;13.23;45.98;101180.81;694244;28;22445;-57
2021/04/01 00:40:22;;;;;;;13.50;9.27;;;;;;;13.24;45.93;101181.63;692882;28;46428;-56
2021/04/01 00:40:43;;;;;;;12.85;9.15;;;;;;;13.24;46.09;101187.06;694368;28;22382;-57
2021/04/01 00:41:04;;;;;;;13.25;9.50;;;;;;;13.25;45.85;101180.63;694094;28;20900;-57
2021/04/01 00:41:26;;;;;;;13.45;9.52;;;;;;;13.24;45.99;101182.47;693956;28;22398;-55
2021/04/01 00:41:47;;;;;;;14.38;9.48;;;;;;;13.24;46.09;101177.03;692987;28;46605;-54
2021/04/01 00:42:08;;;;;;;12.82;9.52;;;;;;;13.25;46.05;101178.72;693828;28;23353;-55
2021/04/01 00:42:30;;;;;;;13.57;9.60;;;;;;;13.26;45.92;101176.84;693134;28;47447;-57
2021/04/01 00:42:51;;;;;;;12.23;9.25;;;;;;;13.24;45.79;101179.75;695113;28;817;-54
2021/04/01 00:43:12;;;;;;;11.18;9.00;;;;;;;13.22;46.18;101175.56;693576;28;22484;-53
2021/04/01 00:43:33;;;;;;;11.77;9.18;;;;;;;13.24;46.06;101177.03;694454;28;18228;-53
2021/04/01 00:43:54;;;;;;;12.45;9.30;;;;;;;13.24;46.14;101176.22;694270;28;23504;-56
2021/04/01 00:44:17;;;;;;;12.98;9.18;;;;;;;13.22;45.77;101176.38;693363;28;21784;-57
2021/04/01 00:44:38;;;;;;;13.80;9.68;;;;;;;13.21;46.31;101174.69;691883;28;69436;-56
2021/04/01 00:45:00;;;;;;;13.18;9.30;;;;;;;13.22;46.26;101178.28;693827;28;22420;-55
2021/04/01 00:45:21;;;;;;;15.63;9.65;;;;;;;13.22;45.94;101180.97;692687;28;47037;-57
2021/04/01 00:45:42;;;;;;;13.52;9.52;;;;;;;13.21;45.89;101177.41;693572;28;22415;-53
2021/04/01 00:46:03;;;;;;;12.88;9.50;;;;;;;13.21;46.13;101185.53;693936;28;21516;-57
2021/04/01 00:46:25;;;;;;;13.98;9.65;;;;;;;13.20;46.12;101178.44;691881;28;22401;-53
2021/04/01 00:46:47;;;;;;;14.57;9.98;;;;;;;13.19;46.00;101178.63;690472;28;44373;-57
2021/04/01 00:47:09;;;;;;;15.15;9.85;;;;;;;13.19;46.08;101179.47;689503;28;1981;-57
2021/04/01 00:47:35;;;;;;;14.75;9.63;;;;;;;13.22;46.38;101183.69;692100;28;1008;-54
2021/04/01 00:47:56;;;;;;;14.88;9.75;;;;;;;13.21;46.38;101182.00;683280;28;118221;-56
2021/04/01 00:48:18;;;;;;;12.68;9.45;;;;;;;13.21;46.02;101180.13;687526;28;1577;-54
2021/04/01 00:48:40;;;;;;;13.45;9.55;;;;;;;13.21;46.03;101182.00;689247;28;1054;-57
2021/04/01 00:49:03;;;;;;;12.50;8.98;;;;;;;13.20;46.11;101180.31;691806;28;886;-54
2021/04/01 00:49:24;;;;;;;11.90;9.05;;;;;;;13.20;45.90;101174.88;691801;28;38853;-54
2021/04/01 00:49:45;;;;;;;12.63;9.50;;;;;;;13.19;45.90;101178.63;692890;28;22492;-57
2021/04/01 00:50:10;;;;;;;13.60;9.60;;;;;;;13.18;46.23;101180.47;694873;28;1016;-55
2021/04/01 00:50:32;;;;;;;12.30;9.25;;;;;;;13.18;46.15;101188.63;692180;28;82267;-58
2021/04/01 00:50:54;;;;;;;13.15;9.27;;;;;;;13.18;46.17;101183.19;691714;28;65060;-57
2021/04/01 00:51:16;;;;;;;12.85;9.23;;;;;;;13.18;46.31;101183.19;690063;28;36886;-55
2021/04/01 00:51:38;;;;;;;15.27;9.45;;;;;;;13.16;46.04;101179.84;687597;28;20894;-56
2021/04/01 00:51:59;;;;;;;14.70;9.52;;;;;;;13.15;46.20;101175.47;689150;28;5463;-54
2021/04/01 00:52:24;;;;;;;12.73;9.35;;;;;;;13.15;46.35;101181.72;688515;28;22544;-57
2021/04/01 00:52:46;;;;;;;13.85;9.25;;;;;;;13.14;46.13;101180.00;688100;28;60974;-57
2021/04/01 00:53:12;;;;;;;12.82;9.40;;;;;;;13.13;46.06;101181.06;691042;28;61794;-57
2021/04/01 00:53:33;;;;;;;13.73;9.48;;;;;;;13.10;46.56;101178.72;694101;28;22469;-54
2021/04/01 00:53:54;;;;;;;12.27;9.32;;;;;;;13.11;46.35;101177.66;693443;28;46324;-55
2021/04/01 00:54:15;;;;;;;12.15;9.18;;;;;;;13.11;46.32;101179.56;694097;28;17280;-57
2021/04/01 00:54:37;;;;;;;12.00;9.05;;;;;;;13.10;46.56;101184.13;694071;28;21573;-58
2021/04/01 00:55:00;;;;;;;13.80;9.30;;;;;;;13.11;46.24;101171.41;693834;28;23426;-54
2021/04/01 00:55:21;;;;;;;13.90;9.17;;;;;;;13.11;46.29;101174.13;691339;28;93319;-57
2021/04/01 00:55:42;;;;;;;11.50;8.98;;;;;;;13.10;46.26;101176.00;692867;28;46410;-58
2021/04/01 00:56:04;;;;;;;12.32;9.18;;;;;;;13.10;46.70;101178.72;694079;28;22484;-57
2021/04/01 00:56:25;;;;;;;13.05;8.85;;;;;;;13.11;46.30;101182.25;693662;28;23399;-55
2021/04/01 00:56:47;;;;;;;14.70;8.95;;;;;;;13.11;46.39;101176.84;692662;28;43841;-56
2021/04/01 00:57:08;;;;;;;15.43;9.40;;;;;;;13.12;46.29;101182.09;694265;28;22435;-57
2021/04/01 00:57:30;;;;;;;16.38;9.65;;;;;;;13.12;46.10;101176.66;693801;28;23394;-54
2021/04/01 00:57:52;;;;;;;14.38;9.38;;;;;;;13.13;46.47;101180.19;693091;28;41578;-57
2021/04/01 00:58:14;;;;;;;12.23;9.20;;;;;;;13.12;46.27;101184.78;692352;28;66147;-56
2021/04/01 00:58:35;;;;;;;13.55;9.23;;;;;;;13.11;46.31;101177.66;693208;28;46421;-57
2021/04/01 00:58:56;;;;;;;15.20;9.55;;;;;;;13.11;46.25;101183.09;693607;28;22393;-57
2021/04/01 00:59:17;;;;;;;14.70;9.77;;;;;;;13.12;46.43;101178.53;693750;28;23519;-53
2021/04/01 00:59:39;;;;;;;11.65;8.98;;;;;;;13.11;46.47;101180.38;693572;28;23445;-56
2021/04/01 01:00:00;;;;;;;11.80;9.48;;;;;;;13.10;46.35;101173.28;693815;28;23469;-56
2021/04/01 01:00:23;;;;;;;11.05;9.07;;;;;;;13.11;46.20;101176.84;693456;28;44224;-57
2021/04/01 01:00:46;;;;;;;12.48;9.20;;;;;;;13.11;46.46;101174.97;692894;28;46419;-54
2021/04/01 01:01:21;;;;;;;14.35;9.27;;;;;;;13.12;46.47;101173.94;691677;28;92228;-57
2021/04/01 01:01:45;;;;;;;13.40;9.45;;;;;;;13.13;46.43;101175.63;689037;28;157790;-56
2021/04/01 01:02:06;;;;;;;13.10;9.32;;;;;;;13.14;46.14;101174.59;690846;28;114332;-54
2021/04/01 01:02:27;;;;;;;12.23;9.25;;;;;;;13.13;46.34;101172.94;695045;28;893;-55
2021/04/01 01:02:49;;;;;;;13.93;9.05;;;;;;;13.14;46.13;101177.31;693929;28;23432;-55
2021/04/01 01:03:10;;;;;;;14.50;9.30;;;;;;;13.11;46.38;101168.69;693687;28;16743;-55
2021/04/01 01:03:32;;;;;;;12.00;9.00;;;;;;;13.13;46.07;101163.94;693703;28;20467;-54
2021/04/01 01:03:53;;;;;;;13.10;8.82;;;;;;;13.14;46.09;101165.63;695022;28;7318;-57
2021/04/01 01:04:15;;;;;;;12.20;9.30;;;;;;;13.14;46.54;101171.88;693323;28;21574;-55
2021/04/01 01:04:36;;;;;;;10.90;8.75;;;;;;;13.13;46.52;101167.50;693001;28;46360;-55
2021/04/01 01:04:58;;;;;;;12.45;9.07;;;;;;;13.14;46.27;101171.88;692899;28;21533;-56
2021/04/01 01:05:20;;;;;;;12.15;8.98;;;;;;;13.15;46.43;101172.75;693070;28;46387;-58
2021/04/01 01:05:43;;;;;;;12.38;9.43;;;;;;;13.14;46.14;101166.47;691447;28;69415;-58
2021/04/01 01:06:04;;;;;;;14.80;9.57;;;;;;;13.15;46.26;101167.31;694197;28;20902;-57
2021/04/01 01:06:25;;;;;;;13.77;9.00;;;;;;;13.14;46.27;101171.88;694138;28;22188;-57
2021/04/01 01:06:46;;;;;;;11.93;9.20;;;;;;;13.15;46.08;101164.59;694172;28;21536;-57
2021/04/01 01:07:08;;;;;;;11.70;8.65;;;;;;;13.15;46.30;101165.44;693963;28;23148;-56
2021/04/01 01:07:30;;;;;;;11.30;8.98;;;;;;;13.15;46.29;101170.03;692557;28;47080;-53
2021/04/01 01:07:51;;;;;;;11.85;8.80;;;;;;;13.14;46.19;101165.63;693082;28;38866;-56
2021/04/01 01:08:12;;;;;;;11.13;8.75;;;;;;;13.14;46.02;101171.88;694371;28;23494;-57
2021/04/01 01:08:33;;;;;;;11.20;9.02;;;;;;;13.12;46.26;101165.81;694162;28;14109;-56
2021/04/01 01:08:54;;;;;;;11.52;9.13;;;;;;;13.11;46.22;101161.41;693948;28;21355;-57
2021/04/01 01:09:16;;;;;;;11.50;8.85;;;;;;;13.11;46.30;101166.81;693093;28;45278;-57
2021/04/01 01:09:37;;;;;;;12.80;8.90;;;;;;;13.11;46.49;101169.53;693838;28;22405;-52
2021/04/01 01:09:58;;;;;;;12.93;8.70;;;;;;;13.10;46.18;101169.72;694251;28;16591;-57
2021/04/01 01:10:22;;;;;;;12.65;8.98;;;;;;;13.09;46.04;101168.06;694041;28;22410;-57
2021/04/01 01:10:43;;;;;;;10.75;8.60;;;;;;;13.08;46.28;101164.47;691350;28;93141;-56
2021/04/01 01:11:04;;;;;;;11.13;9.05;;;;;;;13.08;46.12;101166.34;694121;28;22472;-55
2021/04/01 01:11:27;;;;;;;10.18;8.27;;;;;;;13.07;46.42;101162.81;694172;28;23521;-56
2021/04/01 01:11:48;;;;;;;12.10;9.10;;;;;;;13.07;46.64;101161.94;692333;28;66363;-58
2021/04/01 01:12:10;;;;;;;12.32;8.88;;;;;;;13.05;46.50;101161.31;694361;28;23528;-57
2021/04/01 01:12:32;;;;;;;11.05;9.00;;;;;;;13.04;46.21;101165.88;694169;28;1434;-54
2021/04/01 01:12:54;;;;;;;11.10;8.77;;;;;;;13.04;46.21;101154.19;693378;28;29494;-52
2021/04/01 01:13:20;;;;;;;14.35;9.15;;;;;;;13.04;46.53;101162.31;688642;28;139270;-54
2021/04/01 01:13:41;;;;;;;13.15;8.90;;;;;;;13.04;46.51;101156.88;692944;28;11354;-54
2021/04/01 01:14:04;;;;;;;11.57;8.93;;;;;;;13.01;46.20;101155.41;693851;28;18087;-56
2021/04/01 01:14:25;;;;;;;11.15;8.93;;;;;;;12.99;46.68;101152.00;691441;28;70262;-57
2021/04/01 01:14:46;;;;;;;11.43;9.00;;;;;;;13.01;46.75;101157.25;693665;28;16993;-57
2021/04/01 01:15:08;;;;;;;12.02;9.23;;;;;;;12.98;46.56;101153.91;693692;28;23478;-56
2021/04/01 01:15:30;;;;;;;12.73;9.18;;;;;;;12.97;46.62;101154.06;692109;28;45294;-53
2021/04/01 01:15:51;;;;;;;11.50;9.13;;;;;;;12.97;46.67;101157.63;691850;28;47115;-56
2021/04/01 01:16:12;;;;;;;11.57;9.18;;;;;;;12.96;46.53;101166.81;693854;28;23532;-56
2021/04/01 01:16:33;;;;;;;11.75;8.93;;;;;;;12.95;46.70;101154.25;692558;28;4081;-55
2021/04/01 01:16:56;;;;;;;13.32;8.75;;;;;;;12.95;46.61;101154.25;694536;28;1305;-53
2021/04/01 01:17:22;;;;;;;12.50;9.00;;;;;;;12.94;46.48;101149.84;692817;28;61057;-55
2021/04/01 01:17:43;;;;;;;11.93;8.63;;;;;;;12.92;46.70;101148.38;694204;28;16669;-55
2021/04/01 01:18:05;;;;;;;11.75;8.27;;;;;;;12.92;46.47;101151.06;693493;28;23557;-57
2021/04/01 01:18:27;;;;;;;11.38;8.35;;;;;;;12.93;46.85;101158.16;692252;28;45820;-57
2021/04/01 01:18:57;;;;;;;12.13;9.23;;;;;;;12.90;46.51;101153.97;692266;28;61199;-55
2021/04/01 01:19:18;;;;;;;13.18;9.85;;;;;;;12.89;46.73;101157.69;693927;28;21557;-56
2021/04/01 01:19:41;;;;;;;11.82;9.05;;;;;;;12.89;46.82;101159.56;693848;28;21669;-55
2021/04/01 01:20:06;;;;;;;12.95;9.55;;;;;;;12.88;46.73;101157.88;693097;28;44504;-54
2021/04/01 01:20:27;;;;;;;12.13;8.85;;;;;;;12.86;46.94;101151.81;690159;28;114900;-53
2021/04/01 01:20:49;;;;;;;15.57;10.00;;;;;;;12.85;46.79;101153.66;693357;28;35599;-56
2021/04/01 01:21:11;;;;;;;16.63;10.18;;;;;;;12.86;46.85;101151.81;695012;28;934;-56
2021/04/01 01:21:32;;;;;;;13.13;9.77;;;;;;;12.85;46.90;101150.09;692941;28;43210;-53
2021/04/01 01:21:53;;;;;;;14.43;9.93;;;;;;;12.85;46.91;101153.66;694058;28;8261;-57
2021/04/01 01:22:14;;;;;;;16.27;9.63;;;;;;;12.85;47.09;101156.38;693933;28;16508;-57
2021/04/01 01:22:36;;;;;;;16.35;9.70;;;;;;;12.85;46.93;101153.66;693467;28;20849;-55
2021/04/01 01:22:58;;;;;;;13.32;8.88;;;;;;;12.84;46.81;101152.00;693500;28;37327;-54
2021/04/01 01:23:20;;;;;;;11.38;8.65;;;;;;;12.84;46.70;101146.56;694070;28;23810;-55
2021/04/01 01:23:41;;;;;;;12.18;9.30;;;;;;;12.83;47.02;101150.28;692001;28;67390;-54
2021/04/01 01:24:03;;;;;;;12.60;9.15;;;;;;;12.83;46.79;101144.03;694008;28;21419;-56
2021/04/01 01:24:25;;;;;;;13.32;8.98;;;;;;;12.82;47.14;101145.06;692215;28;36238;-57
2021/04/01 01:24:47;;;;;;;11.98;9.23;;;;;;;12.82;46.92;101147.75;693235;28;45147;-57
2021/04/01 01:25:09;;;;;;;13.02;9.18;;;;;;;12.80;47.39;101145.22;693953;28;23496;-54
2021/04/01 01:25:30;;;;;;;12.40;8.73;;;;;;;12.80;47.14;101143.38;692314;28;67474;-57
2021/04/01 01:25:53;;;;;;;11.48;8.52;;;;;;;12.80;47.08;101148.81;693507;28;24567;-56
2021/04/01 01:26:14;;;;;;;12.77;8.90;;;;;;;12.80;47.08;101146.09;692986;28;45303;-57
2021/04/01 01:26:35;;;;;;;12.10;8.98;;;;;;;12.80;46.63;101145.22;694354;28;21753;-55
2021/04/01 01:26:56;;;;;;;10.57;8.73;;;;;;;12.79;46.91;101147.09;691984;28;45157;-55
2021/04/01 01:27:20;;;;;;;12.38;8.82;;;;;;;12.79;47.04;101149.00;693769;28;21533;-54
2021/04/01 01:27:41;;;;;;;11.68;8.70;;;;;;;12.79;47.37;101141.69;692663;28;69355;-57
2021/04/01 01:28:03;;;;;;;11.82;9.23;;;;;;;12.80;47.00;101147.94;693476;28;22394;-55
2021/04/01 01:28:24;;;;;;;13.52;8.75;;;;;;;12.78;47.29;101145.41;690892;28;69470;-57
2021/04/01 01:28:46;;;;;;;13.35;9.10;;;;;;;12.78;46.99;101139.16;692991;28;22405;-53
2021/04/01 01:29:08;;;;;;;12.82;9.35;;;;;;;12.79;47.10;101143.56;693007;28;46307;-55
2021/04/01 01:29:29;;;;;;;12.82;8.95;;;;;;;12.79;47.19;101146.28;692963;28;46414;-55
2021/04/01 01:29:51;;;;;;;12.95;8.98;;;;;;;12.80;46.87;101142.53;693562;28;23436;-56
2021/04/01 01:30:15;;;;;;;12.10;9.40;;;;;;;12.79;46.81;101144.41;693048;28;21829;-57
2021/04/01 01:30:36;;;;;;;11.98;9.60;;;;;;;12.81;47.06;101141.50;691148;28;92310;-54
2021/04/01 01:30:57;;;;;;;12.80;9.40;;;;;;;12.81;46.86;101141.50;693578;28;23561;-57
2021/04/01 01:31:20;;;;;;;12.15;8.77;;;;;;;12.80;46.83;101150.66;693458;28;22332;-56
2021/04/01 01:31:45;;;;;;;11.25;8.93;;;;;;;12.80;47.31;101134.38;691950;28;69021;-55
2021/04/01 01:32:08;;;;;;;12.40;9.05;;;;;;;12.80;46.84;101143.38;689711;28;137936;-57
2021/04/01 01:32:36;;;;;;;12.00;8.73;;;;;;;12.81;47.25;101144.22;691691;28;69099;-57
2021/04/01 01:32:59;;;;;;;10.88;8.90;;;;;;;12.81;47.23;101141.50;689661;28;138088;-57
2021/04/01 01:33:21;;;;;;;11.88;8.77;;;;;;;12.83;47.23;101144.88;692424;28;69494;-54
2021/04/01 01:33:44;;;;;;;12.23;8.32;;;;;;;12.83;47.47;101141.31;692729;28;46311;-56
2021/04/01 01:34:05;;;;;;;11.90;9.02;;;;;;;12.82;47.41;101143.22;693480;28;44151;-58
2021/04/01 01:34:26;;;;;;;11.20;8.95;;;;;;;12.82;47.42;101140.50;694278;28;4260;-55
2021/04/01 01:34:47;;;;;;;11.23;8.90;;;;;;;12.84;46.94;101145.72;694067;28;23478;-54
2021/04/01 01:35:15;;;;;;;11.57;8.85;;;;;;;12.84;47.32;101143.84;693652;28;22540;-52
2021/04/01 01:35:37;;;;;;;12.57;9.05;;;;;;;12.84;47.03;101138.44;689507;28;137522;-56
2021/04/01 01:35:58;;;;;;;11.50;9.07;;;;;;;12.84;46.96;101135.72;693834;28;22873;-58
2021/04/01 01:36:19;;;;;;;14.30;8.57;;;;;;;12.85;47.05;101140.09;694095;28;23563;-57
2021/04/01 01:36:41;;;;;;;12.88;8.80;;;;;;;12.86;47.13;101140.97;694778;28;918;-55
2021/04/01 01:37:03;;;;;;;12.15;8.77;;;;;;;12.84;47.07;101143.84;694406;28;7564;-55
2021/04/01 01:37:24;;;;;;;10.50;8.48;;;;;;;12.80;47.39;101137.09;692873;28;44414;-57
2021/04/01 01:37:47;;;;;;;10.27;8.95;;;;;;;12.77;47.38;101135.63;693426;28;22382;-57
2021/04/01 01:38:09;;;;;;;13.27;9.10;;;;;;;12.76;47.71;101135.81;691866;28;68756;-54
2021/04/01 01:38:30;;;;;;;11.50;8.68;;;;;;;12.75;47.64;101134.09;693088;28;36253;-56
2021/04/01 01:38:51;;;;;;;11.60;9.07;;;;;;;12.74;47.74;101135.97;693379;28;20884;-54
2021/04/01 01:39:13;;;;;;;12.35;8.85;;;;;;;12.73;47.32;101131.56;693526;28;23850;-55
2021/04/01 01:39:35;;;;;;;12.45;9.25;;;;;;;12.74;47.55;101126.97;693106;28;46404;-53
2021/04/01 01:39:56;;;;;;;11.40;8.88;;;;;;;12.72;47.51;101138.00;693241;28;46359;-55
2021/04/01 01:40:18;;;;;;;12.07;9.20;;;;;;;12.72;47.78;101129.88;693746;28;24553;-57
2021/04/01 01:40:39;;;;;;;10.85;8.73;;;;;;;12.74;47.55;101126.97;692776;28;44375;-57
2021/04/01 01:41:01;;;;;;;10.13;8.88;;;;;;;12.75;47.54;101128.69;694264;28;21523;-56
2021/04/01 01:41:22;;;;;;;14.38;9.25;;;;;;;12.75;47.16;101134.94;692239;28;45320;-54
2021/04/01 01:41:43;;;;;;;14.00;8.90;;;;;;;12.75;47.24;101134.94;694045;28;22429;-55